createdAt,value
2023-04-11T00:01:21.910Z,9.23
2023-04-11T00:02:45.466Z,9.18
2023-04-11T00:04:35.482Z,9.20
2023-04-11T00:05:58.101Z,9.17
2023-04-11T00:07:20.349Z,9.18
2023-04-11T00:08:44.874Z,9.15
2023-04-11T00:10:14.049Z,9.15
2023-04-11T00:11:38.283Z,9.15
2023-04-11T00:13:08.371Z,9.10
2023-04-11T00:14:32.525Z,9.05
2023-04-11T00:15:56.022Z,9.09
2023-04-11T00:17:21.697Z,9.12
2023-04-11T00:18:48.704Z,9.12
2023-04-11T00:20:11.130Z,9.10
2023-04-11T00:21:40.309Z,9.10
2023-04-11T00:23:03.124Z,9.05
2023-04-11T00:24:46.276Z,9.05
2023-04-11T00:26:11.355Z,9.02
2023-04-11T00:27:35.831Z,8.98
2023-04-11T00:29:00.685Z,9.08
2023-04-11T00:30:27.067Z,8.98
2023-04-11T00:31:48.684Z,9.07
2023-04-11T00:33:11.320Z,9.04
2023-04-11T00:34:36.713Z,8.98
2023-04-11T00:35:59.399Z,9.02
2023-04-11T00:37:24.583Z,9.03
2023-04-11T00:38:47.295Z,8.94
2023-04-11T00:40:12.590Z,8.99
2023-04-11T00:41:45.432Z,8.92
2023-04-11T00:43:11.344Z,8.96
2023-04-11T00:44:35.160Z,8.95
2023-04-11T00:45:58.015Z,9.00
2023-04-11T00:47:19.287Z,8.99
2023-04-11T00:48:45.805Z,8.99
2023-04-11T00:50:14.243Z,8.98
2023-04-11T00:51:37.028Z,8.98
2023-04-11T00:53:01.473Z,8.93
2023-04-11T00:54:29.411Z,8.93
2023-04-11T00:55:52.376Z,8.96
2023-04-11T00:57:14.920Z,8.93
2023-04-11T00:58:38.129Z,8.91
2023-04-11T01:00:01.254Z,8.88
2023-04-11T01:01:26.089Z,8.87
2023-04-11T01:02:47.986Z,8.88
2023-04-11T01:04:12.089Z,8.82
2023-04-11T01:05:43.780Z,8.86
2023-04-11T01:07:10.631Z,8.79
2023-04-11T01:08:36.440Z,8.80
2023-04-11T01:10:01.461Z,8.77
2023-04-11T01:11:29.937Z,8.74
2023-04-11T01:12:53.458Z,8.81
2023-04-11T01:14:17.806Z,8.73
2023-04-11T01:15:43.148Z,8.76
2023-04-11T01:17:14.987Z,8.76
2023-04-11T01:18:40.405Z,8.76
2023-04-11T01:20:02.820Z,8.75
2023-04-11T01:21:27.335Z,8.74
2023-04-11T01:22:51.353Z,8.69
2023-04-11T01:24:15.001Z,8.62
2023-04-11T01:25:44.104Z,8.62
2023-04-11T01:27:05.262Z,8.67
2023-04-11T01:28:33.384Z,8.64
2023-04-11T01:29:57.013Z,8.62
2023-04-11T01:31:22.568Z,8.57
2023-04-11T01:32:47.471Z,8.52
2023-04-11T01:34:13.480Z,8.57
2023-04-11T01:35:50.677Z,8.54
2023-04-11T01:37:14.018Z,8.54
2023-04-11T01:38:38.148Z,8.46
2023-04-11T01:40:02.593Z,8.48
2023-04-11T01:41:31.145Z,8.49
2023-04-11T01:42:55.996Z,8.49
2023-04-11T01:44:18.884Z,8.47
2023-04-11T01:45:42.206Z,8.36
2023-04-11T01:47:05.046Z,8.40
2023-04-11T01:48:27.444Z,8.37
2023-04-11T01:49:58.145Z,8.37
2023-04-11T01:51:21.186Z,8.35
2023-04-11T01:52:42.429Z,8.35
2023-04-11T01:54:06.411Z,8.36
2023-04-11T01:55:29.443Z,8.36
2023-04-11T01:56:56.133Z,8.29
2023-04-11T01:58:17.453Z,8.27
2023-04-11T01:59:40.017Z,8.34
2023-04-11T02:01:04.340Z,8.33
2023-04-11T02:02:27.218Z,8.25
2023-04-11T02:03:51.312Z,8.31
2023-04-11T02:05:16.070Z,8.22
2023-04-11T02:06:38.710Z,8.25
2023-04-11T02:07:59.731Z,8.24
2023-04-11T02:09:22.258Z,8.23
2023-04-11T02:10:45.403Z,8.27
2023-04-11T02:12:07.942Z,8.19
2023-04-11T02:13:32.528Z,8.25
2023-04-11T02:14:55.796Z,8.25
2023-04-11T02:16:18.481Z,8.22
2023-04-11T02:17:45.717Z,8.18
2023-04-11T02:19:08.337Z,8.25
2023-04-11T02:20:29.489Z,8.27
2023-04-11T02:21:54.404Z,8.18
2023-04-11T02:23:16.479Z,8.29
2023-04-11T02:24:39.436Z,8.25
2023-04-11T02:26:03.570Z,8.29
2023-04-11T02:27:26.026Z,8.25
2023-04-11T02:28:52.803Z,8.26
2023-04-11T02:30:16.149Z,8.28
2023-04-11T02:31:40.292Z,8.22
2023-04-11T02:33:06.305Z,8.25
2023-04-11T02:34:29.415Z,8.28
2023-04-11T02:35:51.710Z,8.25
2023-04-11T02:37:13.120Z,8.25
2023-04-11T02:38:37.787Z,8.24
2023-04-11T02:39:59.009Z,8.20
2023-04-11T02:41:22.744Z,8.17
2023-04-11T02:42:45.194Z,8.18
2023-04-11T02:44:06.715Z,8.20
2023-04-11T02:45:31.991Z,8.19
2023-04-11T02:46:56.499Z,8.16
2023-04-11T02:48:21.744Z,8.15
2023-04-11T02:50:19.502Z,8.13
2023-04-11T02:51:45.977Z,8.11
2023-04-11T02:53:11.512Z,8.09
2023-04-11T02:54:38.871Z,8.08
2023-04-11T02:56:01.649Z,8.07
2023-04-11T02:57:24.521Z,8.05
2023-04-11T02:58:47.504Z,8.04
2023-04-11T03:00:13.055Z,8.03
2023-04-11T03:01:43.942Z,8.02
2023-04-11T03:03:06.710Z,8.02
2023-04-11T03:04:34.816Z,7.98
2023-04-11T03:06:07.102Z,8.03
2023-04-11T03:07:34.100Z,8.02
2023-04-11T03:08:59.098Z,7.98
2023-04-11T03:10:20.858Z,7.98
2023-04-11T03:11:47.404Z,7.97
2023-04-11T03:13:13.796Z,7.95
2023-04-11T03:14:37.345Z,7.93
2023-04-11T03:15:59.958Z,7.88
2023-04-11T03:17:24.819Z,7.89
2023-04-11T03:18:47.317Z,7.87
2023-04-11T03:20:13.163Z,7.94
2023-04-11T03:21:42.215Z,7.95
2023-04-11T03:23:11.238Z,7.90
2023-04-11T03:24:34.498Z,7.95
2023-04-11T03:25:58.629Z,7.91
2023-04-11T03:27:22.220Z,7.96
2023-04-11T03:28:50.640Z,7.94
2023-04-11T03:30:16.700Z,7.88
2023-04-11T03:31:45.141Z,7.93
2023-04-11T03:33:08.626Z,7.93
2023-04-11T03:34:34.733Z,7.94
2023-04-11T03:36:01.756Z,7.89
2023-04-11T03:37:26.857Z,7.89
2023-04-11T03:38:49.465Z,7.96
2023-04-11T03:40:14.582Z,7.98
2023-04-11T03:41:41.271Z,7.91
2023-04-11T03:43:05.501Z,7.92
2023-04-11T03:44:39.303Z,7.94
2023-04-11T03:46:03.919Z,7.93
2023-04-11T03:47:43.583Z,7.96
2023-04-11T03:49:20.793Z,7.94
2023-04-11T03:50:49.292Z,7.90
2023-04-11T03:52:19.239Z,7.88
2023-04-11T03:53:44.388Z,7.90
2023-04-11T03:55:41.351Z,7.88
2023-04-11T03:57:06.547Z,7.88
2023-04-11T03:58:30.379Z,7.95
2023-04-11T03:59:54.703Z,7.91
2023-04-11T04:01:19.577Z,7.95
2023-04-11T04:02:50.877Z,7.99
2023-04-11T04:05:15.800Z,8.02
2023-04-11T04:06:40.312Z,8.03
2023-04-11T04:08:02.900Z,8.00
2023-04-11T04:09:45.324Z,8.03
2023-04-11T04:11:09.046Z,7.95
2023-04-11T04:12:33.378Z,7.99
2023-04-11T04:14:25.327Z,8.04
2023-04-11T04:15:51.601Z,8.06
2023-04-11T04:17:19.017Z,7.99
2023-04-11T04:18:42.959Z,8.06
2023-04-11T04:20:07.606Z,8.04
2023-04-11T04:21:33.052Z,8.10
2023-04-11T04:22:56.736Z,8.05
2023-04-11T04:24:27.556Z,8.09
2023-04-11T04:25:58.309Z,8.08
2023-04-11T04:27:25.568Z,8.09
2023-04-11T04:28:49.552Z,8.14
2023-04-11T04:30:19.451Z,8.11
2023-04-11T04:32:13.742Z,8.12
2023-04-11T04:33:43.094Z,8.12
2023-04-11T04:35:14.390Z,8.13
2023-04-11T04:36:46.617Z,8.17
2023-04-11T04:38:18.124Z,8.16
2023-04-11T04:39:51.195Z,8.15
2023-04-11T04:41:22.374Z,8.13
2023-04-11T04:42:58.632Z,8.13
2023-04-11T04:44:36.383Z,8.27
2023-04-11T04:46:12.286Z,8.25
2023-04-11T04:47:46.421Z,8.37
2023-04-11T04:49:09.430Z,8.41
2023-04-11T04:50:32.104Z,8.49
2023-04-11T04:51:53.376Z,8.63
2023-04-11T04:53:15.902Z,8.68
2023-04-11T04:54:46.979Z,8.69
2023-04-11T04:56:09.528Z,8.79
2023-04-11T04:57:35.304Z,8.78
2023-04-11T04:58:57.995Z,8.82
2023-04-11T05:00:22.903Z,8.82
2023-04-11T05:01:46.816Z,8.81
2023-04-11T05:03:11.737Z,8.86
2023-04-11T05:04:36.314Z,8.84
2023-04-11T05:06:02.873Z,8.88
2023-04-11T05:07:26.830Z,8.80
2023-04-11T05:08:48.870Z,8.88
2023-04-11T05:10:11.861Z,8.87
2023-04-11T05:11:40.089Z,8.92
2023-04-11T05:13:04.160Z,8.92
2023-04-11T05:14:28.396Z,8.94
2023-04-11T05:15:51.483Z,8.95
2023-04-11T05:17:14.783Z,8.99
2023-04-11T05:18:38.617Z,8.98
2023-04-11T05:20:03.253Z,8.98
2023-04-11T05:21:28.140Z,9.00
2023-04-11T05:22:53.707Z,8.97
2023-04-11T05:24:17.575Z,8.96
2023-04-11T05:25:39.785Z,8.94
2023-04-11T05:27:05.890Z,8.92
2023-04-11T05:28:27.512Z,8.97
2023-04-11T05:29:52.493Z,8.93
2023-04-11T05:31:15.282Z,8.91
2023-04-11T05:34:28.243Z,8.90
2023-04-11T05:40:00.837Z,8.96
2023-04-11T05:41:31.848Z,8.95
2023-04-11T05:42:56.608Z,8.99
2023-04-11T05:44:24.089Z,8.94
2023-04-11T05:45:48.109Z,9.07
2023-04-11T05:47:15.300Z,9.10
2023-04-11T05:48:44.085Z,9.10
2023-04-11T05:50:40.909Z,9.12
2023-04-11T05:52:05.387Z,9.16
2023-04-11T05:53:32.155Z,9.23
2023-04-11T05:54:56.989Z,9.21
2023-04-11T05:56:19.345Z,9.33
2023-04-11T05:57:41.529Z,9.26
2023-04-11T05:59:04.006Z,9.36
2023-04-11T06:02:24.465Z,9.41
2023-04-11T06:04:11.299Z,9.46
2023-04-11T06:05:46.150Z,9.55
2023-04-11T06:09:18.097Z,9.61
2023-04-11T06:10:42.340Z,9.72
2023-04-11T06:12:06.823Z,9.75
2023-04-11T06:13:32.279Z,9.80
2023-04-11T06:14:54.999Z,9.79
2023-04-11T06:16:17.481Z,9.84
2023-04-11T06:17:38.853Z,9.85
2023-04-11T06:19:09.707Z,9.94
2023-04-11T06:20:32.520Z,9.93
2023-04-11T06:21:59.460Z,9.99
2023-04-11T06:23:21.965Z,10.06
2023-04-11T06:24:45.633Z,10.11
2023-04-11T06:26:11.280Z,10.19
2023-04-11T06:27:33.686Z,10.20
2023-04-11T06:28:56.019Z,10.27
2023-04-11T06:30:18.241Z,10.29
2023-04-11T06:31:43.955Z,10.32
2023-04-11T06:33:06.309Z,10.36
2023-04-11T06:34:29.294Z,10.35
2023-04-11T06:35:57.240Z,10.44
2023-04-11T06:37:21.234Z,10.46
2023-04-11T06:38:43.597Z,10.47
2023-04-11T06:40:05.923Z,10.47
2023-04-11T06:41:30.328Z,10.54
2023-04-11T06:42:53.028Z,10.57
2023-04-11T06:47:37.140Z,10.57
2023-04-11T06:49:01.847Z,10.50
2023-04-11T06:51:34.157Z,10.51
2023-04-11T06:53:03.100Z,10.62
2023-04-11T06:54:39.632Z,10.60
2023-04-11T06:56:04.334Z,10.61
2023-04-11T06:57:43.375Z,10.63
2023-04-11T06:59:05.975Z,10.64
2023-04-11T07:00:31.292Z,10.64
2023-04-11T07:02:00.341Z,10.75
2023-04-11T07:03:31.001Z,10.76
2023-04-11T07:04:55.916Z,10.76
2023-04-11T07:06:21.212Z,10.88
2023-04-11T07:08:03.222Z,10.89
2023-04-11T07:13:03.503Z,10.91
2023-04-11T07:14:39.721Z,10.98
2023-04-11T07:16:15.243Z,10.94
2023-04-11T07:17:52.712Z,10.96
2023-04-11T07:19:16.781Z,11.08
2023-04-11T07:20:41.141Z,11.05
2023-04-11T07:23:06.179Z,11.12
2023-04-11T07:24:42.566Z,11.11
2023-04-11T07:26:09.246Z,11.19
2023-04-11T07:27:50.856Z,11.30
2023-04-11T07:29:32.247Z,11.25
2023-04-11T07:32:17.621Z,11.35
2023-04-11T07:33:45.502Z,11.38
2023-04-11T07:38:51.139Z,11.62
2023-04-11T08:02:10.538Z,12.56
2023-04-11T08:19:31.827Z,13.46
2023-04-11T08:24:28.758Z,13.73
2023-04-11T08:28:54.077Z,13.95
2023-04-11T08:33:34.829Z,14.27
2023-04-11T08:50:39.847Z,15.97
2023-04-11T08:53:08.990Z,16.09
2023-04-11T08:54:37.696Z,16.22
2023-04-11T09:03:51.460Z,16.83
2023-04-11T09:05:35.644Z,16.99
2023-04-11T09:07:18.394Z,17.01
2023-04-11T09:15:27.016Z,18.33
2023-04-11T09:17:28.044Z,18.93
2023-04-11T09:18:59.280Z,20.22
2023-04-11T09:27:24.961Z,20.80
2023-04-11T09:29:31.807Z,20.76
2023-04-11T09:40:49.782Z,20.16
2023-04-11T10:08:52.713Z,21.46
2023-04-11T10:10:37.752Z,21.52
2023-04-11T10:12:08.338Z,21.60
2023-04-11T10:13:44.044Z,21.57
2023-04-11T10:15:27.406Z,21.54
2023-04-11T10:17:46.999Z,21.43
2023-04-11T10:19:37.696Z,21.18
2023-04-11T10:24:55.212Z,20.63
2023-04-11T10:29:53.241Z,19.97
2023-04-11T10:34:19.604Z,19.65
2023-04-11T10:35:59.963Z,19.49
2023-04-11T10:37:35.642Z,19.41
2023-04-11T10:39:00.037Z,19.34
2023-04-11T10:40:24.473Z,19.22
2023-04-11T10:41:50.680Z,19.19
2023-04-11T10:43:50.286Z,19.02
2023-04-11T10:46:27.878Z,18.91
2023-04-11T10:48:08.017Z,18.78
2023-04-11T10:49:35.124Z,18.74
2023-04-11T11:00:14.821Z,18.06
2023-04-11T11:01:48.906Z,17.95
2023-04-11T11:03:23.785Z,17.80
2023-04-11T11:05:24.526Z,17.81
2023-04-11T11:07:37.264Z,17.69
2023-04-11T11:09:22.188Z,17.42
2023-04-11T11:10:46.585Z,17.35
2023-04-11T11:12:10.937Z,17.19
2023-04-11T11:13:53.970Z,17.10
2023-04-11T11:18:26.305Z,16.67
2023-04-11T11:19:50.059Z,16.58
2023-04-11T11:21:20.618Z,16.43
2023-04-11T11:23:02.558Z,16.17
2023-04-11T11:24:35.553Z,16.08
2023-04-11T11:26:08.930Z,15.91
2023-04-11T11:28:00.974Z,15.78
2023-04-11T11:29:32.863Z,15.68
2023-04-11T11:30:59.252Z,15.58
2023-04-11T11:32:28.529Z,15.48
2023-04-11T11:33:55.690Z,15.34
2023-04-11T11:35:19.308Z,15.20
2023-04-11T11:37:17.470Z,14.96
2023-04-11T11:38:58.121Z,14.81
2023-04-11T11:44:15.929Z,14.21
2023-04-11T11:46:08.728Z,14.00
2023-04-11T11:50:43.768Z,13.50
2023-04-11T11:52:07.556Z,13.41
2023-04-11T11:53:30.277Z,13.27
2023-04-11T11:55:36.131Z,13.04
2023-04-11T11:56:58.757Z,12.94
2023-04-11T11:58:28.962Z,12.80
2023-04-11T11:59:57.194Z,12.68
2023-04-11T12:01:19.804Z,12.57
2023-04-11T12:02:43.658Z,12.57
2023-04-11T12:04:41.676Z,12.44
2023-04-11T12:06:09.256Z,12.27
2023-04-11T12:07:32.784Z,12.18
2023-04-11T12:09:04.812Z,12.20
2023-04-11T12:10:41.407Z,12.05
2023-04-11T12:12:03.536Z,11.98
2023-04-11T12:13:43.457Z,11.98
2023-04-11T12:15:19.617Z,11.83
2023-04-11T12:16:47.592Z,11.77
2023-04-11T12:18:10.111Z,11.79
2023-04-11T12:19:36.367Z,11.70
2023-04-11T12:21:00.983Z,11.57
2023-04-11T12:22:38.793Z,11.42
2023-04-11T12:24:01.965Z,11.36
2023-04-11T12:28:50.068Z,11.10
2023-04-11T12:30:18.860Z,11.08
2023-04-11T12:31:51.431Z,11.05
2023-04-11T12:33:17.824Z,10.97
2023-04-11T12:34:42.706Z,10.85
2023-04-11T12:36:07.214Z,10.81
2023-04-11T12:37:33.567Z,10.83
2023-04-11T12:39:00.580Z,10.84
2023-04-11T12:40:28.743Z,10.81
2023-04-11T12:41:57.725Z,10.85
2023-04-11T12:55:17.338Z,10.93
2023-04-11T12:57:04.619Z,11.09
2023-04-11T13:02:45.225Z,11.33
2023-04-11T13:04:08.563Z,11.49
2023-04-11T13:08:30.854Z,11.80
2023-04-11T13:09:54.037Z,11.92
2023-04-11T13:24:12.827Z,12.80
2023-04-11T13:45:46.551Z,13.75
2023-04-11T13:47:09.930Z,13.82
2023-04-11T13:48:32.117Z,13.74
2023-04-11T13:50:02.236Z,13.63
2023-04-11T13:51:35.300Z,13.60
2023-04-11T13:52:58.205Z,13.60
2023-04-11T13:54:36.712Z,13.49
2023-04-11T14:02:31.854Z,13.22
2023-04-11T14:05:52.626Z,13.33
2023-04-11T14:07:16.603Z,13.36
2023-04-11T14:12:02.954Z,13.25
2023-04-11T14:13:42.077Z,13.15
2023-04-11T14:15:23.473Z,13.07
2023-04-11T14:16:47.054Z,13.07
2023-04-11T14:19:24.125Z,13.02
2023-04-11T14:20:56.725Z,13.01
2023-04-11T14:22:20.112Z,13.06
2023-04-11T14:24:54.061Z,13.05
2023-04-11T14:31:56.877Z,12.81
2023-04-11T14:34:26.029Z,12.72
2023-04-11T14:37:10.029Z,12.71
2023-04-11T14:46:35.710Z,12.33
2023-04-11T15:00:20.352Z,12.45
2023-04-11T15:01:48.449Z,12.56
2023-04-11T15:03:13.503Z,12.60
2023-04-11T15:04:43.769Z,12.76
2023-04-11T15:11:07.692Z,12.98
2023-04-11T15:17:38.467Z,13.29
2023-04-11T15:20:32.418Z,13.35
2023-04-11T15:31:14.192Z,13.18
2023-04-11T15:32:38.986Z,13.16
2023-04-11T15:34:09.122Z,13.18
2023-04-11T15:35:34.434Z,13.20
2023-04-11T15:37:00.936Z,13.07
2023-04-11T15:38:24.316Z,13.05
2023-04-11T15:40:00.263Z,13.01
2023-04-11T15:46:21.760Z,12.66
2023-04-11T15:50:40.591Z,12.37
2023-04-11T15:55:18.648Z,12.36
2023-04-11T15:57:35.355Z,12.36
2023-04-11T15:59:11.668Z,12.36
2023-04-11T16:03:13.780Z,12.41
2023-04-11T16:05:00.067Z,12.38
2023-04-11T16:06:23.200Z,12.32
2023-04-11T16:07:45.519Z,12.33
2023-04-11T16:09:12.157Z,12.38
2023-04-11T16:10:35.761Z,12.33
2023-04-11T16:12:39.106Z,12.38
2023-04-11T16:14:14.737Z,12.33
2023-04-11T16:15:38.830Z,12.37
2023-04-11T16:17:06.540Z,12.40
2023-04-11T16:19:16.533Z,12.40
2023-04-11T16:21:28.335Z,12.30
2023-04-11T16:22:56.370Z,12.31
2023-04-11T16:24:19.301Z,12.31
2023-04-11T16:25:50.878Z,12.31
2023-04-11T16:27:13.246Z,12.34
2023-04-11T16:28:37.828Z,12.31
2023-04-11T16:33:06.996Z,12.22
2023-04-11T16:36:18.150Z,12.17
2023-04-11T16:38:47.384Z,12.17
2023-04-11T16:40:32.706Z,12.05
2023-04-11T16:41:56.325Z,12.05
2023-04-11T16:43:18.641Z,12.05
2023-04-11T16:44:43.162Z,12.01
2023-04-11T16:46:07.737Z,11.97
2023-04-11T16:47:37.860Z,11.94
2023-04-11T16:49:47.704Z,11.91
2023-04-11T16:51:15.769Z,11.86
2023-04-11T16:52:37.658Z,11.85
2023-04-11T16:54:33.007Z,11.77
2023-04-11T16:56:00.583Z,11.72
2023-04-11T16:57:27.636Z,11.68
2023-04-11T16:58:52.627Z,11.63
2023-04-11T17:00:20.135Z,11.59
2023-04-11T17:01:42.707Z,11.51
2023-04-11T17:03:08.849Z,11.48
2023-04-11T17:04:39.513Z,11.37
2023-04-11T17:06:42.363Z,11.38
2023-04-11T17:08:07.415Z,11.28
2023-04-11T17:09:40.203Z,11.27
2023-04-11T17:11:09.381Z,11.21
2023-04-11T17:12:34.350Z,11.13
2023-04-11T17:13:57.831Z,11.16
2023-04-11T17:15:21.328Z,11.10
2023-04-11T17:16:47.692Z,11.07
2023-04-11T17:18:10.194Z,11.00
2023-04-11T17:19:37.153Z,10.98
2023-04-11T17:20:59.805Z,10.89
2023-04-11T17:22:42.393Z,10.86
2023-04-11T17:24:07.157Z,10.81
2023-04-11T17:25:35.450Z,10.75
2023-04-11T17:26:59.635Z,10.68
2023-04-11T17:28:26.054Z,10.63
2023-04-11T17:29:51.013Z,10.63
2023-04-11T17:31:13.696Z,10.59
2023-04-11T17:32:38.109Z,10.52
2023-04-11T17:34:00.600Z,10.47
2023-04-11T17:35:24.658Z,10.38
2023-04-11T17:36:47.946Z,10.37
2023-04-11T17:38:16.226Z,10.34
2023-04-11T17:39:39.648Z,10.25
2023-04-11T17:41:13.839Z,10.21
2023-04-11T17:42:37.192Z,10.17
2023-04-11T17:44:01.832Z,10.05
2023-04-11T17:45:24.366Z,10.09
2023-04-11T17:46:46.495Z,9.95
2023-04-11T17:48:09.328Z,10.02
2023-04-11T17:49:31.646Z,9.98
2023-04-11T17:51:16.585Z,9.92
2023-04-11T17:52:40.379Z,9.91
2023-04-11T17:54:34.535Z,9.90
2023-04-11T17:55:57.751Z,9.87
2023-04-11T17:57:20.384Z,9.83
2023-04-11T17:58:45.317Z,9.82
2023-04-11T18:00:16.448Z,9.86
2023-04-11T18:01:40.065Z,9.82
2023-04-11T18:03:04.663Z,9.84
2023-04-11T18:04:29.140Z,9.87
2023-04-11T18:05:52.446Z,9.89
2023-04-11T18:07:16.592Z,9.90
2023-04-11T18:08:50.309Z,9.94
2023-04-11T18:10:16.514Z,9.97
2023-04-11T18:14:05.597Z,9.88
2023-04-11T18:16:34.804Z,9.93
2023-04-11T18:18:00.024Z,9.90
2023-04-11T18:19:25.491Z,9.84
2023-04-11T18:20:58.226Z,9.87
2023-04-11T18:22:29.374Z,9.82
2023-04-11T18:23:52.208Z,9.78
2023-04-11T18:25:14.525Z,9.75
2023-04-11T18:26:37.028Z,9.75
2023-04-11T18:27:59.346Z,9.78
2023-04-11T18:29:27.076Z,9.70
2023-04-11T18:31:42.668Z,9.73
2023-04-11T18:32:55.106Z,9.69
2023-04-11T18:34:25.898Z,9.66
2023-04-11T18:36:22.578Z,9.64
2023-04-11T18:37:52.120Z,9.59
2023-04-11T18:39:18.868Z,9.62
2023-04-11T18:40:41.241Z,9.63
2023-04-11T18:42:09.802Z,9.59
2023-04-11T18:43:38.906Z,9.56
2023-04-11T18:45:05.367Z,9.57
2023-04-11T18:46:28.425Z,9.59
2023-04-11T18:47:51.638Z,9.54
2023-04-11T18:49:17.776Z,9.56
2023-04-11T18:51:03.173Z,9.55
2023-04-11T18:52:31.745Z,9.55
2023-04-11T18:54:16.973Z,9.50
2023-04-11T18:55:44.359Z,9.52
2023-04-11T18:57:10.601Z,9.51
2023-04-11T18:58:46.709Z,9.57
2023-04-11T19:00:19.485Z,9.49
2023-04-11T19:01:52.532Z,9.46
2023-04-11T19:03:34.996Z,9.48
2023-04-11T19:05:03.285Z,9.50
2023-04-11T19:06:29.533Z,9.49
2023-04-11T19:10:28.793Z,9.51
2023-04-11T19:15:21.609Z,9.44
2023-04-11T19:17:24.626Z,9.42
2023-04-11T19:18:52.499Z,9.40
2023-04-11T19:20:50.385Z,9.33
2023-04-11T19:22:18.540Z,9.37
2023-04-11T19:23:44.794Z,9.31
2023-04-11T19:26:14.805Z,9.32
2023-04-11T19:27:56.624Z,9.24
2023-04-11T19:29:24.170Z,9.26
2023-04-11T19:30:53.226Z,9.15
2023-04-11T19:34:38.536Z,9.11
2023-04-11T19:36:10.657Z,9.15
2023-04-11T19:38:09.185Z,9.11
2023-04-11T19:39:40.237Z,9.12
2023-04-11T19:41:14.763Z,9.11
2023-04-11T19:42:40.624Z,9.11
2023-04-11T19:44:14.568Z,9.09
2023-04-11T19:45:44.188Z,9.06
2023-04-11T19:47:09.659Z,8.96
2023-04-11T19:48:39.044Z,8.95
2023-04-11T19:50:25.823Z,8.94
2023-04-11T19:51:53.166Z,8.95
2023-04-11T19:53:21.103Z,8.88
2023-04-11T19:54:55.180Z,8.84
2023-04-11T19:56:25.172Z,8.78
2023-04-11T19:57:58.194Z,8.74
2023-04-11T19:59:31.571Z,8.73
2023-04-11T20:01:08.841Z,8.66
2023-04-11T20:02:51.948Z,8.66
2023-04-11T20:04:36.251Z,8.60
2023-04-11T20:06:05.747Z,8.51
2023-04-11T20:07:54.388Z,8.46
2023-04-11T20:13:59.592Z,8.29
2023-04-11T20:15:39.751Z,8.33
2023-04-11T20:17:21.790Z,8.23
2023-04-11T20:18:50.132Z,8.19
2023-04-11T20:20:43.597Z,8.22
